Time;durP1;ratioP1;P1;durP2;ratioP2;P2;SDS_P1;SDS_P2;PMS_P1;PMS_P2;Temp;Humidity;BMP_temperature;BMP_pressure;BME280_temperature;BME280_humidity;BME280_pressure;Samples;Min_cycle;Max_cycle;Signal;HPM_P1;HPM_P2
2022/10/04 00:00:44;;;;;;;11.10;4.30;;;;;;;;;;2372518;56;21082;-77
2022/10/04 00:03:12;;;;;;;9.55;4.00;;;;;;;;;;2373213;56;21533;-77
2022/10/04 00:05:41;;;;;;;12.02;4.10;;;;;;;;;;2373605;56;21549;-76
2022/10/04 00:08:18;;;;;;;10.85;3.45;;;;;;;;;;2373703;56;21086;-76
2022/10/04 00:10:45;;;;;;;11.98;4.78;;;;;;;;;;2373352;56;21047;-76
2022/10/04 00:13:17;;;;;;;12.50;4.40;;;;;;;;;;2372955;56;21098;-77
2022/10/04 00:15:49;;;;;;;10.35;4.18;;;;;;;;;;2624550;52;21082;-76
2022/10/04 00:18:21;;;;;;;10.73;4.28;;;;;;;;;;2626407;52;21636;-76
2022/10/04 00:20:59;;;;;;;6.93;3.92;;;;;;;;;;2373127;56;21114;-76
2022/10/04 00:23:45;;;;;;;8.00;4.03;;;;;;;;;;2373094;56;21537;-76
2022/10/04 00:27:10;;;;;;;12.68;4.37;;;;;;;;;;2241729;60;21075;-76
2022/10/04 00:29:38;;;;;;;21.20;5.07;;;;;;;;;;2242489;60;21119;-76
2022/10/04 00:32:23;;;;;;;9.18;3.62;;;;;;;;;;2242258;60;21545;-77
2022/10/04 00:34:51;;;;;;;12.40;4.07;;;;;;;;;;2240835;60;21159;-77
2022/10/04 00:37:19;;;;;;;12.48;4.18;;;;;;;;;;2241453;60;21648;-77
2022/10/04 00:39:47;;;;;;;7.82;3.90;;;;;;;;;;2240520;60;21128;-78
2022/10/04 00:42:48;;;;;;;17.60;4.40;;;;;;;;;;2240595;60;21083;-77
2022/10/04 00:45:34;;;;;;;12.30;4.40;;;;;;;;;;2240713;60;21071;-77
2022/10/04 00:48:09;;;;;;;7.28;3.40;;;;;;;;;;2240869;60;21116;-76
2022/10/04 00:50:39;;;;;;;14.70;4.40;;;;;;;;;;2240285;60;21190;-76
2022/10/04 00:53:13;;;;;;;13.38;4.18;;;;;;;;;;2241053;60;21083;-76
2022/10/04 00:55:43;;;;;;;9.95;3.72;;;;;;;;;;2240770;60;21067;-77
2022/10/04 00:58:16;;;;;;;10.38;4.15;;;;;;;;;;2240949;60;21139;-75
2022/10/04 01:00:44;;;;;;;8.13;3.60;;;;;;;;;;2241118;60;21067;-76
2022/10/04 01:03:14;;;;;;;7.32;2.95;;;;;;;;;;2241007;60;21104;-76
2022/10/04 01:05:42;;;;;;;12.07;3.72;;;;;;;;;;2240734;60;21198;-76
2022/10/04 01:08:12;;;;;;;12.60;3.72;;;;;;;;;;2241325;60;21123;-77
2022/10/04 01:10:42;;;;;;;11.12;3.72;;;;;;;;;;2465432;55;21546;-75
2022/10/04 01:13:12;;;;;;;9.05;3.20;;;;;;;;;;2241571;60;21559;-75
2022/10/04 01:15:42;;;;;;;10.13;3.20;;;;;;;;;;2241001;60;21151;-76
2022/10/04 01:18:12;;;;;;;9.88;3.45;;;;;;;;;;2241453;60;21091;-75
2022/10/04 01:20:39;;;;;;;9.55;3.60;;;;;;;;;;2241005;60;21135;-78
2022/10/04 01:23:09;;;;;;;11.60;3.55;;;;;;;;;;2241364;60;21234;-76
2022/10/04 01:25:47;;;;;;;8.35;2.95;;;;;;;;;;2240757;60;21538;-76
2022/10/04 01:28:15;;;;;;;10.30;3.67;;;;;;;;;;2241399;60;21071;-76
2022/10/04 01:30:42;;;;;;;12.43;4.05;;;;;;;;;;2240873;60;21732;-78
2022/10/04 01:33:11;;;;;;;11.02;3.40;;;;;;;;;;2240458;60;21211;-78
2022/10/04 01:35:38;;;;;;;9.20;4.20;;;;;;;;;;2464775;56;21091;-77
2022/10/04 01:38:06;;;;;;;10.25;3.85;;;;;;;;;;2240921;60;21562;-76
2022/10/04 01:40:34;;;;;;;10.82;3.10;;;;;;;;;;2240743;60;21079;-79
2022/10/04 01:43:03;;;;;;;7.47;3.42;;;;;;;;;;2241170;60;21618;-76
2022/10/04 01:45:33;;;;;;;12.57;3.85;;;;;;;;;;2241025;60;21147;-78
2022/10/04 01:48:01;;;;;;;9.02;4.15;;;;;;;;;;2240367;60;21091;-79
2022/10/04 01:50:30;;;;;;;10.60;3.72;;;;;;;;;;2240165;60;21636;-78
2022/10/04 01:53:00;;;;;;;10.45;4.22;;;;;;;;;;2240742;60;21171;-78
2022/10/04 01:55:29;;;;;;;13.25;3.50;;;;;;;;;;2240844;60;21079;-77
2022/10/04 01:57:59;;;;;;;8.20;3.22;;;;;;;;;;2241150;60;21211;-76
2022/10/04 02:00:28;;;;;;;10.98;3.65;;;;;;;;;;2240773;60;21167;-77
2022/10/04 02:02:58;;;;;;;8.18;3.30;;;;;;;;;;2240588;60;21106;-76
2022/10/04 02:05:28;;;;;;;8.35;3.10;;;;;;;;;;2241352;60;21051;-76
2022/10/04 02:07:57;;;;;;;12.98;3.28;;;;;;;;;;2240685;60;21214;-78
2022/10/04 02:10:25;;;;;;;7.68;3.62;;;;;;;;;;2465027;55;21064;-78
2022/10/04 02:12:53;;;;;;;12.35;3.70;;;;;;;;;;2239790;60;21135;-77
2022/10/04 02:15:21;;;;;;;5.03;3.00;;;;;;;;;;2240914;60;21143;-77
2022/10/04 02:17:49;;;;;;;9.77;3.12;;;;;;;;;;2241080;60;21088;-78
2022/10/04 02:20:17;;;;;;;8.55;2.95;;;;;;;;;;2241573;60;21135;-76
2022/10/04 02:22:45;;;;;;;6.25;3.17;;;;;;;;;;2240598;60;21079;-78
2022/10/04 02:25:13;;;;;;;8.82;2.90;;;;;;;;;;2240403;60;21075;-76
2022/10/04 02:27:40;;;;;;;12.85;4.00;;;;;;;;;;2241001;60;21076;-78
2022/10/04 02:30:09;;;;;;;11.63;4.45;;;;;;;;;;2240786;60;21091;-76
2022/10/04 02:35:22;;;;;;;11.18;3.00;;;;;;;;;;2241277;60;21963;-77
2022/10/04 02:37:53;;;;;;;4.53;2.60;;;;;;;;;;2241526;60;21088;-78
2022/10/04 02:42:59;;;;;;;17.67;4.15;;;;;;;;;;2273132;59;20095;-75
2022/10/04 02:45:29;;;;;;;12.10;3.67;;;;;;;;;;2312918;58;21123;-77
2022/10/04 02:47:58;;;;;;;9.80;3.10;;;;;;;;;;2317592;58;21056;-75
2022/10/04 02:50:30;;;;;;;7.22;3.33;;;;;;;;;;2318117;58;21104;-75
2022/10/04 02:53:01;;;;;;;6.22;3.30;;;;;;;;;;2316407;58;21068;-77
2022/10/04 02:55:29;;;;;;;13.93;3.90;;;;;;;;;;2557439;54;21040;-76
2022/10/04 02:57:57;;;;;;;7.97;3.47;;;;;;;;;;2317016;58;22161;-76
2022/10/04 03:00:26;;;;;;;6.10;3.72;;;;;;;;;;2317006;58;21546;-79
2022/10/04 03:03:15;;;;;;;6.07;3.10;;;;;;;;;;2316507;58;21610;-78
2022/10/04 03:05:43;;;;;;;7.68;3.28;;;;;;;;;;2317438;58;21044;-76
2022/10/04 03:08:10;;;;;;;9.70;3.70;;;;;;;;;;2317556;58;21117;-76
2022/10/04 03:10:38;;;;;;;6.70;3.03;;;;;;;;;;2558437;54;21167;-78
2022/10/04 03:13:05;;;;;;;10.55;3.95;;;;;;;;;;2317476;58;21081;-77
2022/10/04 03:15:32;;;;;;;8.02;3.20;;;;;;;;;;2317085;58;21135;-79
2022/10/04 03:17:59;;;;;;;9.00;3.17;;;;;;;;;;2317353;58;21080;-76
2022/10/04 03:20:27;;;;;;;7.15;2.92;;;;;;;;;;2317784;58;21100;-77
2022/10/04 03:22:55;;;;;;;9.52;3.55;;;;;;;;;;2317111;58;21052;-78
2022/10/04 03:25:25;;;;;;;7.25;3.03;;;;;;;;;;2317427;58;21764;-75
2022/10/04 03:27:52;;;;;;;9.25;3.60;;;;;;;;;;2316442;58;21925;-76
2022/10/04 03:30:20;;;;;;;13.95;3.95;;;;;;;;;;2314302;58;21075;-80
2022/10/04 03:32:47;;;;;;;9.10;3.83;;;;;;;;;;2557279;54;21633;-79
2022/10/04 03:35:19;;;;;;;7.68;3.72;;;;;;;;;;2315678;58;21108;-75
2022/10/04 03:37:46;;;;;;;10.05;3.40;;;;;;;;;;2317455;58;21569;-75
2022/10/04 03:40:14;;;;;;;10.93;3.72;;;;;;;;;;2317196;58;21141;-78
2022/10/04 03:42:41;;;;;;;11.38;3.30;;;;;;;;;;2316910;58;21036;-75
2022/10/04 03:45:11;;;;;;;14.82;3.97;;;;;;;;;;2317906;58;21179;-76
2022/10/04 03:47:40;;;;;;;11.35;4.30;;;;;;;;;;2558135;54;21072;-76
2022/10/04 03:50:13;;;;;;;9.57;3.47;;;;;;;;;;2317869;58;21057;-75
2022/10/04 03:52:42;;;;;;;8.68;3.85;;;;;;;;;;2315951;58;21144;-76
2022/10/04 03:55:11;;;;;;;9.80;3.70;;;;;;;;;;2316316;58;21052;-79
2022/10/04 03:57:38;;;;;;;10.32;3.33;;;;;;;;;;2316540;58;21115;-76
2022/10/04 04:00:06;;;;;;;10.40;3.20;;;;;;;;;;2316800;58;21590;-76
2022/10/04 04:02:35;;;;;;;7.18;3.03;;;;;;;;;;2316053;58;21578;-79
2022/10/04 04:05:06;;;;;;;11.57;3.92;;;;;;;;;;2316021;58;21054;-77
2022/10/04 04:07:37;;;;;;;9.80;4.12;;;;;;;;;;2314635;58;21136;-76
2022/10/04 04:10:07;;;;;;;10.27;3.97;;;;;;;;;;2316660;58;21093;-76
2022/10/04 04:12:38;;;;;;;11.32;3.28;;;;;;;;;;2316201;58;21634;-78
2022/10/04 04:15:06;;;;;;;11.18;3.47;;;;;;;;;;2315845;58;21115;-76
2022/10/04 04:17:39;;;;;;;9.20;3.20;;;;;;;;;;2316348;58;21610;-79
2022/10/04 04:20:12;;;;;;;10.73;3.45;;;;;;;;;;2314903;58;21052;-77
2022/10/04 04:22:41;;;;;;;9.13;3.50;;;;;;;;;;2554018;54;22249;-76
2022/10/04 04:25:11;;;;;;;6.75;2.95;;;;;;;;;;2316283;58;21064;-77
2022/10/04 04:27:39;;;;;;;9.75;4.20;;;;;;;;;;2316901;58;21111;-77
2022/10/04 04:30:08;;;;;;;8.52;2.90;;;;;;;;;;2316744;58;21127;-77
2022/10/04 04:32:36;;;;;;;7.97;3.22;;;;;;;;;;2313648;58;21041;-78
2022/10/04 04:35:07;;;;;;;9.27;3.53;;;;;;;;;;2316005;58;21131;-77
2022/10/04 04:37:35;;;;;;;10.50;3.47;;;;;;;;;;2316863;58;21033;-77
2022/10/04 04:40:18;;;;;;;9.68;3.40;;;;;;;;;;2556890;54;21602;-77
2022/10/04 04:42:46;;;;;;;9.77;3.40;;;;;;;;;;2316669;58;21108;-77
2022/10/04 04:45:15;;;;;;;7.62;2.75;;;;;;;;;;2316807;58;21052;-79
2022/10/04 04:47:43;;;;;;;9.68;3.70;;;;;;;;;;2316208;58;21500;-77
2022/10/04 04:50:14;;;;;;;9.90;3.65;;;;;;;;;;2557206;54;21590;-77
2022/10/04 04:52:43;;;;;;;10.88;3.70;;;;;;;;;;2316114;58;21120;-77
2022/10/04 04:55:16;;;;;;;7.70;3.50;;;;;;;;;;2316697;58;21060;-79
2022/10/04 04:57:43;;;;;;;7.32;3.25;;;;;;;;;;2556714;54;21077;-77
2022/10/04 05:00:16;;;;;;;7.82;2.92;;;;;;;;;;2316357;58;21053;-77
2022/10/04 05:02:50;;;;;;;10.10;3.45;;;;;;;;;;2556723;54;21116;-77
2022/10/04 05:05:19;;;;;;;9.57;3.78;;;;;;;;;;2316049;58;21543;-77
2022/10/04 05:07:46;;;;;;;9.23;3.22;;;;;;;;;;2316451;58;21044;-77
2022/10/04 05:10:29;;;;;;;8.57;3.60;;;;;;;;;;2316113;58;21103;-78
2022/10/04 05:12:56;;;;;;;7.28;2.95;;;;;;;;;;2315919;58;21057;-81
2022/10/04 05:15:23;;;;;;;7.07;3.55;;;;;;;;;;2316003;58;21064;-81
2022/10/04 05:17:50;;;;;;;5.35;2.70;;;;;;;;;;2556730;54;21531;-80
2022/10/04 05:20:18;;;;;;;7.45;3.42;;;;;;;;;;2316893;58;21124;-77
2022/10/04 05:22:47;;;;;;;9.40;3.47;;;;;;;;;;2315929;58;21049;-76
2022/10/04 05:25:26;;;;;;;9.13;3.75;;;;;;;;;;2316084;58;21061;-77
2022/10/04 05:27:54;;;;;;;8.27;3.55;;;;;;;;;;2316604;58;21619;-77
2022/10/04 05:30:27;;;;;;;8.43;3.20;;;;;;;;;;2316673;58;21052;-76
2022/10/04 05:32:59;;;;;;;6.85;3.45;;;;;;;;;;2316603;58;21048;-78
2022/10/04 05:35:27;;;;;;;11.23;3.35;;;;;;;;;;2316831;58;21053;-77
2022/10/04 05:37:58;;;;;;;5.97;3.72;;;;;;;;;;2316777;58;21401;-76
2022/10/04 05:40:31;;;;;;;13.90;3.65;;;;;;;;;;2557359;54;21060;-77
2022/10/04 05:42:59;;;;;;;8.88;3.10;;;;;;;;;;2316562;58;21429;-77
2022/10/04 05:45:27;;;;;;;11.60;3.92;;;;;;;;;;2316330;58;21531;-77
2022/10/04 05:47:55;;;;;;;8.18;3.37;;;;;;;;;;2317080;58;21073;-76
2022/10/04 05:50:26;;;;;;;8.63;3.85;;;;;;;;;;2316780;58;21052;-77
2022/10/04 05:52:53;;;;;;;10.80;3.60;;;;;;;;;;2315434;58;21547;-76
2022/10/04 05:55:28;;;;;;;10.35;3.40;;;;;;;;;;2316611;58;21551;-77
2022/10/04 05:58:18;;;;;;;9.05;3.62;;;;;;;;;;2557321;54;21105;-77
2022/10/04 06:00:53;;;;;;;7.90;3.10;;;;;;;;;;2316375;58;21052;-77
2022/10/04 06:03:35;;;;;;;8.18;3.00;;;;;;;;;;2557045;54;21655;-76
2022/10/04 06:06:05;;;;;;;10.85;3.28;;;;;;;;;;2556709;54;21032;-76
2022/10/04 06:08:39;;;;;;;7.95;2.90;;;;;;;;;;2315902;58;21614;-77
2022/10/04 06:11:14;;;;;;;4.82;2.60;;;;;;;;;;2316229;58;21037;-76
2022/10/04 06:14:00;;;;;;;6.82;3.03;;;;;;;;;;2316643;58;21558;-76
2022/10/04 06:16:34;;;;;;;5.15;2.78;;;;;;;;;;2316228;58;21745;-78
2022/10/04 06:19:23;;;;;;;7.50;3.15;;;;;;;;;;2316787;58;21124;-76
2022/10/04 06:22:01;;;;;;;6.87;3.10;;;;;;;;;;2303860;58;21558;-77
2022/10/04 06:24:29;;;;;;;9.13;3.42;;;;;;;;;;2316637;58;21574;-76
2022/10/04 06:27:00;;;;;;;6.68;2.83;;;;;;;;;;2316809;58;21056;-76
2022/10/04 06:29:30;;;;;;;8.40;3.20;;;;;;;;;;2316169;58;21543;-76
2022/10/04 06:32:11;;;;;;;10.65;3.30;;;;;;;;;;2316367;58;21132;-76
2022/10/04 06:34:48;;;;;;;9.10;4.12;;;;;;;;;;2316507;58;21135;-76
2022/10/04 06:37:23;;;;;;;11.52;3.70;;;;;;;;;;2316380;58;21671;-77
2022/10/04 06:40:01;;;;;;;12.77;4.12;;;;;;;;;;2316558;58;21970;-77
2022/10/04 06:42:38;;;;;;;11.90;3.72;;;;;;;;;;2315995;58;21124;-76
2022/10/04 06:45:20;;;;;;;9.70;3.37;;;;;;;;;;2316378;58;21113;-76
2022/10/04 06:47:59;;;;;;;11.38;3.78;;;;;;;;;;2557196;54;21072;-77
2022/10/04 06:50:32;;;;;;;12.15;3.58;;;;;;;;;;2316660;58;21112;-76
2022/10/04 06:53:06;;;;;;;11.57;3.30;;;;;;;;;;2316402;58;21053;-76
2022/10/04 06:55:51;;;;;;;10.73;4.18;;;;;;;;;;2316208;58;21060;-76
2022/10/04 06:58:31;;;;;;;4.53;3.10;;;;;;;;;;2316944;58;21064;-76
2022/10/04 07:01:00;;;;;;;10.23;4.35;;;;;;;;;;2556770;54;21599;-76
2022/10/04 07:03:32;;;;;;;10.00;4.40;;;;;;;;;;2316983;58;21212;-76
2022/10/04 07:06:02;;;;;;;14.93;5.12;;;;;;;;;;2316490;58;21131;-76
2022/10/04 07:08:35;;;;;;;10.82;4.00;;;;;;;;;;2313940;58;21131;-77
2022/10/04 07:11:01;;;;;;;;;;;;;;;;;;2318139;58;21068;-76
2022/10/04 07:13:32;;;;;;;9.90;4.07;;;;;;;;;;2316839;58;20150;-76
2022/10/04 07:16:02;;;;;;;15.20;5.03;;;;;;;;;;2316042;58;21063;-76
2022/10/04 07:18:34;;;;;;;5.75;3.37;;;;;;;;;;2314630;58;21346;-76
2022/10/04 07:21:04;;;;;;;10.23;4.47;;;;;;;;;;2315873;58;21083;-80
2022/10/04 07:23:32;;;;;;;10.75;3.92;;;;;;;;;;2555812;54;21068;-76
2022/10/04 07:26:02;;;;;;;11.95;3.75;;;;;;;;;;2315252;58;21108;-77
2022/10/04 07:31:22;;;;;;;11.98;4.72;;;;;;;;;;2316425;58;20984;-76
2022/10/04 07:33:50;;;;;;;10.18;3.97;;;;;;;;;;2316863;58;21044;-77
2022/10/04 07:36:20;;;;;;;8.55;3.80;;;;;;;;;;2316364;58;21103;-76
2022/10/04 07:38:50;;;;;;;8.40;4.80;;;;;;;;;;2316176;58;21116;-76
2022/10/04 07:41:22;;;;;;;9.30;4.68;;;;;;;;;;2553941;54;21112;-78
2022/10/04 07:43:51;;;;;;;6.45;3.40;;;;;;;;;;2314878;58;21139;-76
2022/10/04 07:46:22;;;;;;;15.40;5.90;;;;;;;;;;2315427;58;21052;-76
2022/10/04 07:48:49;;;;;;;17.55;6.50;;;;;;;;;;2314957;58;21076;-77
2022/10/04 07:51:19;;;;;;;14.07;5.70;;;;;;;;;;2555667;54;21124;-78
2022/10/04 07:53:50;;;;;;;12.55;4.78;;;;;;;;;;2316050;58;21586;-76
2022/10/04 07:56:21;;;;;;;12.88;4.72;;;;;;;;;;2315602;58;21065;-76
2022/10/04 07:58:52;;;;;;;12.65;5.50;;;;;;;;;;2315384;58;21124;-77
2022/10/04 08:01:30;;;;;;;7.85;3.80;;;;;;;;;;2314674;58;21168;-77
2022/10/04 08:04:02;;;;;;;10.13;4.93;;;;;;;;;;2315990;58;21136;-78
2022/10/04 08:06:33;;;;;;;11.27;4.65;;;;;;;;;;2315714;58;21135;-77
2022/10/04 08:09:17;;;;;;;9.95;4.93;;;;;;;;;;2316172;58;21057;-76
2022/10/04 08:11:48;;;;;;;17.90;5.22;;;;;;;;;;2315773;58;21291;-78
2022/10/04 08:14:24;;;;;;;15.30;5.03;;;;;;;;;;2315706;58;21052;-77
2022/10/04 08:16:58;;;;;;;17.17;5.47;;;;;;;;;;2315243;58;21147;-77
2022/10/04 08:19:34;;;;;;;15.20;5.53;;;;;;;;;;2555821;54;21571;-76
2022/10/04 08:22:03;;;;;;;9.27;4.43;;;;;;;;;;2314598;58;21139;-77
2022/10/04 08:24:32;;;;;;;11.98;5.10;;;;;;;;;;2315728;58;21140;-76
2022/10/04 08:27:10;;;;;;;13.25;5.43;;;;;;;;;;2315779;58;21132;-77
2022/10/04 08:30:01;;;;;;;7.18;3.90;;;;;;;;;;2315454;58;21124;-77
2022/10/04 08:32:31;;;;;;;10.07;4.55;;;;;;;;;;2313344;58;21056;-77
2022/10/04 08:35:18;;;;;;;12.35;4.80;;;;;;;;;;2315233;58;21633;-76
2022/10/04 08:37:52;;;;;;;13.98;5.53;;;;;;;;;;2315424;58;21071;-77
2022/10/04 08:40:38;;;;;;;10.48;5.22;;;;;;;;;;2315863;58;21548;-77
2022/10/04 08:43:36;;;;;;;15.50;6.32;;;;;;;;;;2267272;58;21100;-76
2022/10/04 08:46:15;;;;;;;11.05;5.20;;;;;;;;;;2315661;58;21123;-77
2022/10/04 08:49:08;;;;;;;13.70;5.10;;;;;;;;;;2314445;58;21076;-78
2022/10/04 08:52:04;;;;;;;16.48;5.70;;;;;;;;;;2315603;58;21785;-77
2022/10/04 08:54:45;;;;;;;10.73;4.65;;;;;;;;;;2209791;58;21101;-77
2022/10/04 08:57:34;;;;;;;16.45;5.37;;;;;;;;;;2315808;58;21033;-76
2022/10/04 09:00:14;;;;;;;11.43;5.65;;;;;;;;;;2300945;58;21136;-77
2022/10/04 09:03:04;;;;;;;12.23;5.20;;;;;;;;;;2316095;58;21049;-76
2022/10/04 09:05:39;;;;;;;11.07;5.35;;;;;;;;;;2314221;58;21060;-78
2022/10/04 09:08:22;;;;;;;12.02;5.32;;;;;;;;;;2315068;58;21064;-78
2022/10/04 09:11:09;;;;;;;11.98;5.75;;;;;;;;;;2314575;58;21757;-77
2022/10/04 09:13:45;;;;;;;9.50;5.22;;;;;;;;;;2316031;58;21615;-77
2022/10/04 09:16:16;;;;;;;16.45;5.37;;;;;;;;;;2557351;54;21075;-77
2022/10/04 09:18:50;;;;;;;12.73;6.50;;;;;;;;;;2315925;58;21040;-76
2022/10/04 09:21:26;;;;;;;13.05;6.07;;;;;;;;;;2314942;58;21048;-76
2022/10/04 09:24:16;;;;;;;11.45;5.45;;;;;;;;;;2316477;58;21108;-76
2022/10/04 09:26:44;;;;;;;12.90;6.03;;;;;;;;;;2301655;58;21068;-77
2022/10/04 09:29:22;;;;;;;13.27;5.57;;;;;;;;;;2557798;54;21061;-76
2022/10/04 09:32:05;;;;;;;12.80;6.93;;;;;;;;;;2557489;54;21068;-78
2022/10/04 09:34:40;;;;;;;18.15;7.18;;;;;;;;;;2316687;58;21547;-76
2022/10/04 09:37:33;;;;;;;14.80;5.95;;;;;;;;;;2316936;58;21180;-77
2022/10/04 09:40:19;;;;;;;11.40;5.93;;;;;;;;;;2552087;54;21112;-76
2022/10/04 09:43:00;;;;;;;13.00;5.90;;;;;;;;;;2316553;58;21143;-77
2022/10/04 09:45:55;;;;;;;10.02;5.32;;;;;;;;;;2316619;58;21144;-76
2022/10/04 09:48:28;;;;;;;14.23;5.68;;;;;;;;;;2291313;58;21061;-76
2022/10/04 09:51:09;;;;;;;11.98;6.15;;;;;;;;;;2316684;58;21120;-76
2022/10/04 09:53:43;;;;;;;10.55;5.85;;;;;;;;;;2316716;58;21060;-76
2022/10/04 09:56:17;;;;;;;9.52;4.18;;;;;;;;;;2316041;58;21073;-77
2022/10/04 09:58:57;;;;;;;13.77;4.78;;;;;;;;;;2316498;58;21519;-78
2022/10/04 10:01:28;;;;;;;11.30;4.82;;;;;;;;;;2316653;58;21124;-77
2022/10/04 10:04:04;;;;;;;9.30;4.82;;;;;;;;;;2315922;58;21138;-77
2022/10/04 10:06:36;;;;;;;14.68;5.75;;;;;;;;;;2316169;58;21045;-77
2022/10/04 10:09:09;;;;;;;15.52;5.53;;;;;;;;;;2316770;58;21072;-77
2022/10/04 10:14:42;;;;;;;9.50;4.80;;;;;;;;;;2315763;58;21009;-77
2022/10/04 10:17:14;;;;;;;15.95;6.43;;;;;;;;;;2316634;58;21112;-76
2022/10/04 10:20:00;;;;;;;13.20;5.77;;;;;;;;;;2317046;58;21124;-77
2022/10/04 10:22:40;;;;;;;10.80;5.10;;;;;;;;;;2314571;58;21112;-77
2022/10/04 10:25:21;;;;;;;10.27;4.22;;;;;;;;;;2316199;58;21120;-76
2022/10/04 10:28:17;;;;;;;16.62;5.62;;;;;;;;;;2316761;58;21060;-77
2022/10/04 10:30:51;;;;;;;16.75;6.12;;;;;;;;;;2316332;58;21582;-76
2022/10/04 10:33:41;;;;;;;14.70;5.93;;;;;;;;;;2316244;58;21128;-77
2022/10/04 10:36:27;;;;;;;12.50;4.90;;;;;;;;;;2316437;58;21120;-76
2022/10/04 10:39:01;;;;;;;11.45;4.90;;;;;;;;;;2317012;58;21056;-76
2022/10/04 10:41:34;;;;;;;13.90;5.85;;;;;;;;;;2556999;54;21080;-76
2022/10/04 10:44:09;;;;;;;11.27;5.53;;;;;;;;;;2316843;58;21063;-77
2022/10/04 10:46:46;;;;;;;11.10;6.00;;;;;;;;;;2316591;58;21519;-76
2022/10/04 10:49:26;;;;;;;13.23;5.70;;;;;;;;;;2316669;58;21056;-76
2022/10/04 10:52:05;;;;;;;13.38;6.35;;;;;;;;;;2315961;58;21064;-76
2022/10/04 10:54:54;;;;;;;12.48;5.85;;;;;;;;;;2316439;58;21064;-76
2022/10/04 10:57:32;;;;;;;11.63;5.40;;;;;;;;;;2261400;58;21072;-76
2022/10/04 11:00:13;;;;;;;14.60;5.95;;;;;;;;;;2316749;58;21063;-76
2022/10/04 11:02:59;;;;;;;11.27;5.15;;;;;;;;;;2315815;58;21061;-76
2022/10/04 11:05:48;;;;;;;11.02;5.10;;;;;;;;;;2316226;58;21088;-76
2022/10/04 11:08:28;;;;;;;14.25;5.00;;;;;;;;;;2557233;54;21104;-76
2022/10/04 11:11:03;;;;;;;9.25;4.45;;;;;;;;;;2316590;58;21136;-76
2022/10/04 11:13:47;;;;;;;13.85;5.45;;;;;;;;;;2316542;58;21653;-76
2022/10/04 11:16:52;;;;;;;17.20;6.10;;;;;;;;;;2317093;58;21112;-76
2022/10/04 11:19:53;;;;;;;14.20;6.78;;;;;;;;;;2195880;61;21710;-76
2022/10/04 11:25:34;;;;;;;13.93;4.85;;;;;;;;;;2374409;56;22076;-76
2022/10/04 11:28:04;;;;;;;14.55;5.12;;;;;;;;;;2344380;56;21019;-76
2022/10/04 11:30:38;;;;;;;12.98;5.82;;;;;;;;;;2374279;56;21051;-75
2022/10/04 11:33:24;;;;;;;18.30;6.50;;;;;;;;;;2374124;56;21589;-76
2022/10/04 11:35:58;;;;;;;13.07;5.28;;;;;;;;;;2371300;56;21023;-76
2022/10/04 11:38:32;;;;;;;13.30;5.78;;;;;;;;;;2373555;56;21541;-76
2022/10/04 11:41:12;;;;;;;11.15;5.35;;;;;;;;;;2373168;56;21043;-76
2022/10/04 11:43:52;;;;;;;13.60;5.28;;;;;;;;;;2373731;56;21034;-76
2022/10/04 11:46:25;;;;;;;11.07;4.93;;;;;;;;;;2373517;56;21054;-77
2022/10/04 11:48:52;;;;;;;;;;;;;;;;;;2377814;56;21059;-76
2022/10/04 11:51:40;;;;;;;12.75;5.45;;;;;;;;;;2373240;56;20074;-75
2022/10/04 11:54:21;;;;;;;12.32;5.07;;;;;;;;;;2373670;56;21494;-75
2022/10/04 11:57:07;;;;;;;12.00;5.20;;;;;;;;;;2373180;56;21377;-77
2022/10/04 11:59:41;;;;;;;10.55;4.80;;;;;;;;;;2372213;56;21039;-77
2022/10/04 12:02:27;;;;;;;10.48;5.43;;;;;;;;;;2374045;56;21066;-77
2022/10/04 12:05:12;;;;;;;21.45;5.05;;;;;;;;;;2628247;52;21124;-79
2022/10/04 12:07:45;;;;;;;11.35;4.10;;;;;;;;;;2627305;52;21372;-80
2022/10/04 12:10:23;;;;;;;13.13;4.07;;;;;;;;;;2629903;52;21074;-79
2022/10/04 12:13:00;;;;;;;15.93;5.05;;;;;;;;;;2375280;56;22270;-81
2022/10/04 12:15:50;;;;;;;15.88;3.97;;;;;;;;;;2627644;52;21166;-80
2022/10/04 12:18:55;;;;;;;7.37;3.25;;;;;;;;;;2340129;56;21115;-80
2022/10/04 12:24:09;;;;;;;10.38;3.17;;;;;;;;;;2333319;57;22111;-82
2022/10/04 12:26:54;;;;;;;8.55;3.95;;;;;;;;;;2597523;53;21065;-81
2022/10/04 12:29:44;;;;;;;11.65;3.50;;;;;;;;;;2349096;57;21207;-80
2022/10/04 12:32:15;;;;;;;12.35;3.15;;;;;;;;;;2339997;57;21141;-79
2022/10/04 12:34:46;;;;;;;7.30;2.95;;;;;;;;;;2348425;57;21181;-80
2022/10/04 12:37:19;;;;;;;6.50;3.20;;;;;;;;;;2596596;53;21034;-80
2022/10/04 12:39:56;;;;;;;12.23;2.60;;;;;;;;;;2596419;52;21120;-79
2022/10/04 12:42:30;;;;;;;10.63;3.75;;;;;;;;;;2595675;52;21046;-79
2022/10/04 12:45:20;;;;;;;6.78;2.45;;;;;;;;;;2595561;53;21113;-79
2022/10/04 12:47:57;;;;;;;4.20;2.00;;;;;;;;;;2347910;57;21049;-79
2022/10/04 12:50:31;;;;;;;5.00;2.15;;;;;;;;;;2595469;53;21101;-80
2022/10/04 12:53:04;;;;;;;6.57;2.20;;;;;;;;;;2348159;57;21133;-79
2022/10/04 12:55:49;;;;;;;7.75;1.95;;;;;;;;;;2595842;52;21668;-80
2022/10/04 12:58:20;;;;;;;7.60;1.87;;;;;;;;;;2594293;53;21049;-77
2022/10/04 13:00:48;;;;;;;7.90;2.65;;;;;;;;;;2594372;53;21037;-79
2022/10/04 13:03:20;;;;;;;6.07;2.10;;;;;;;;;;2347228;57;21069;-79
2022/10/04 13:05:54;;;;;;;12.48;2.62;;;;;;;;;;2348545;57;21037;-79
2022/10/04 13:08:28;;;;;;;5.72;1.73;;;;;;;;;;2348643;57;21026;-80
2022/10/04 13:11:09;;;;;;;8.60;2.50;;;;;;;;;;2594480;53;21597;-76
2022/10/04 13:13:48;;;;;;;7.35;1.98;;;;;;;;;;2349422;57;21101;-79
2022/10/04 13:16:21;;;;;;;9.52;2.53;;;;;;;;;;2349094;57;21096;-79
2022/10/04 13:18:52;;;;;;;6.18;2.20;;;;;;;;;;2348991;57;21078;-79
2022/10/04 13:21:23;;;;;;;5.90;1.80;;;;;;;;;;2348646;57;21393;-78
2022/10/04 13:23:54;;;;;;;4.85;2.15;;;;;;;;;;2596667;52;21113;-78
2022/10/04 13:26:30;;;;;;;7.20;1.85;;;;;;;;;;2349193;57;21041;-79
2022/10/04 13:29:02;;;;;;;5.05;1.83;;;;;;;;;;2594737;53;21347;-79
2022/10/04 13:31:33;;;;;;;7.53;2.20;;;;;;;;;;2595403;52;21089;-79
2022/10/04 13:34:08;;;;;;;9.52;2.40;;;;;;;;;;2595927;52;21145;-79
2022/10/04 13:36:41;;;;;;;9.70;2.45;;;;;;;;;;2594090;53;21042;-79
2022/10/04 13:39:18;;;;;;;4.62;2.00;;;;;;;;;;2348226;57;21093;-79
2022/10/04 13:41:56;;;;;;;7.78;2.60;;;;;;;;;;2594355;53;21141;-80
2022/10/04 13:44:42;;;;;;;8.50;2.40;;;;;;;;;;2594959;53;21120;-79
2022/10/04 13:47:20;;;;;;;6.28;2.25;;;;;;;;;;2594603;53;21061;-79
2022/10/04 13:49:53;;;;;;;7.30;2.90;;;;;;;;;;2594125;53;21057;-79
2022/10/04 13:58:11;;;;;;;5.00;2.20;;;;;;;;;;2348555;57;20978;-79
2022/10/04 14:00:44;;;;;;;5.35;2.10;;;;;;;;;;2594942;53;21652;-79
2022/10/04 14:03:10;;;;;;;;;;;;;;;;;;2599098;52;21059;-79
2022/10/04 14:06:03;;;;;;;6.65;2.17;;;;;;;;;;2347726;57;20149;-78
2022/10/04 14:08:48;;;;;;;5.62;2.40;;;;;;;;;;2595165;53;21085;-79
2022/10/04 14:14:00;;;;;;;5.68;2.58;;;;;;;;;;2333909;57;22531;-79
2022/10/04 14:16:37;;;;;;;6.07;2.15;;;;;;;;;;2595625;53;21551;-79
2022/10/04 14:19:19;;;;;;;7.10;2.25;;;;;;;;;;2348424;57;21037;-79
2022/10/04 14:22:16;;;;;;;5.55;2.12;;;;;;;;;;2348240;57;21133;-79
2022/10/04 14:24:53;;;;;;;6.70;2.00;;;;;;;;;;2348297;57;21156;-78
2022/10/04 14:27:42;;;;;;;7.12;2.45;;;;;;;;;;2348371;57;21030;-77
2022/10/04 14:30:34;;;;;;;7.82;1.75;;;;;;;;;;2348930;57;21121;-80
2022/10/04 14:33:27;;;;;;;3.45;2.08;;;;;;;;;;2348396;57;21129;-79
2022/10/04 14:36:03;;;;;;;6.40;2.10;;;;;;;;;;2349047;57;21097;-80
2022/10/04 14:38:37;;;;;;;5.32;2.10;;;;;;;;;;2348666;57;21097;-80
2022/10/04 14:41:11;;;;;;;5.35;2.00;;;;;;;;;;2347021;57;21593;-79
2022/10/04 14:44:03;;;;;;;8.32;2.10;;;;;;;;;;2348172;57;21033;-80
2022/10/04 14:46:39;;;;;;;3.42;1.95;;;;;;;;;;2348639;57;21052;-80
2022/10/04 14:49:13;;;;;;;5.65;2.22;;;;;;;;;;2348297;57;21180;-80
2022/10/04 14:51:47;;;;;;;5.57;2.00;;;;;;;;;;2348155;57;21136;-80
2022/10/04 14:54:18;;;;;;;9.02;2.45;;;;;;;;;;2594374;52;21066;-80
2022/10/04 14:56:52;;;;;;;3.83;1.80;;;;;;;;;;2347159;57;21038;-78
2022/10/04 14:59:34;;;;;;;5.00;2.12;;;;;;;;;;2347519;57;21544;-78
2022/10/04 15:02:19;;;;;;;8.68;2.10;;;;;;;;;;2346918;57;21054;-78
2022/10/04 15:05:02;;;;;;;5.78;1.77;;;;;;;;;;2346694;57;21124;-79
2022/10/04 15:07:32;;;;;;;3.45;1.92;;;;;;;;;;2594913;52;21688;-78
2022/10/04 15:10:06;;;;;;;4.37;1.90;;;;;;;;;;2347099;57;21049;-80
2022/10/04 15:12:43;;;;;;;5.60;1.85;;;;;;;;;;2594436;52;21140;-81
2022/10/04 15:15:30;;;;;;;8.27;1.80;;;;;;;;;;2596208;53;21057;-80
2022/10/04 15:18:02;;;;;;;5.62;1.90;;;;;;;;;;2580891;53;21081;-79
2022/10/04 15:20:32;;;;;;;8.13;1.90;;;;;;;;;;2347586;57;21049;-79
2022/10/04 15:23:09;;;;;;;2.95;1.70;;;;;;;;;;2348344;57;21116;-80
2022/10/04 15:25:37;;;;;;;3.87;2.00;;;;;;;;;;2594856;53;21061;-80
2022/10/04 15:28:07;;;;;;;4.90;1.95;;;;;;;;;;2594970;53;22144;-79
2022/10/04 15:30:45;;;;;;;3.05;1.73;;;;;;;;;;2346684;57;21081;-79
2022/10/04 15:33:29;;;;;;;6.72;2.17;;;;;;;;;;2347383;57;21117;-80
2022/10/04 15:36:10;;;;;;;5.78;2.00;;;;;;;;;;2594635;53;21109;-80
2022/10/04 15:38:44;;;;;;;4.80;1.75;;;;;;;;;;2594095;53;21038;-80
2022/10/04 15:41:10;;;;;;;;;;;;;;;;;;2350713;57;21108;-80
2022/10/04 15:43:42;;;;;;;5.93;1.50;;;;;;;;;;2347229;57;20067;-80
2022/10/04 15:46:30;;;;;;;6.37;2.20;;;;;;;;;;2594291;53;21117;-80
2022/10/04 15:49:14;;;;;;;4.50;2.08;;;;;;;;;;2594889;53;21033;-79